Flight Track Log - Related Links

Times and Time Zones

All times are in EDT time to prevent confusion due to time zone crossing. See the SWA1181 flight status page for this flight to view local times or setup timezone preferences in your user account.

Time Position Orientation Groundspeed Altitude Reporting Facility
EDT Latitude Longitude Course Direction KTS MPH feet Rate Location/Type
Sat 01:40:21 PM 38.6800 -90.5060 130° Southeast 318 366 10,300  Level FlightAware ADS-B
Sat 01:40:35 PM 38.6680 -90.4820 123° Southeast 336 387 10,700 1,800 Climbing FlightAware ADS-B
Sat 01:41:11 PM 38.6410 -90.4180 118° Southeast 371 427 11,800 2,435 Climbing FlightAware ADS-B
Sat 01:41:44 PM 38.6110 -90.3470 118° Southeast 388 447 13,500 2,824 Climbing FlightAware ADS-B
Sat 01:42:19 PM 38.5810 -90.2770 119° Southeast 401 461 15,000 2,384 Climbing FlightAware ADS-B
Sat 01:42:57 PM 38.5450 -90.1950 119° Southeast 425 489 16,400 2,113 Climbing FlightAware ADS-B
Sat 01:43:30 PM 38.5150 -90.1260 119° Southeast 443 510 17,500 2,057 Climbing FlightAware ADS-B
Sat 01:44:07 PM 38.4760 -90.0370 119° Southeast 458 527 18,800 2,348 Climbing FlightAware ADS-B
Sat 01:44:39 PM 38.4430 -89.9630 120° Southeast 464 534 20,200 2,455 Climbing FlightAware ADS-B
Sat 01:45:13 PM 38.4060 -89.8770 119° Southeast 473 544 21,500 2,143 Climbing FlightAware ADS-B
Sat 01:45:49 PM 38.3670 -89.7890 119° Southeast 483 556 22,700 1,913 Climbing FlightAware ADS-B
Sat 01:46:22 PM 38.3300 -89.7100 121° Southeast 487 560 23,700 1,917 Climbing FlightAware ADS-B
Sat 01:47:01 PM 38.2730 -89.6230 130° Southeast 489 563 25,000 1,971 Climbing FlightAware ADS-B
Sat 01:47:32 PM 38.2270 -89.5570 132° Southeast 493 567 26,000 1,941 Climbing FlightAware ADS-B
Sat 01:48:09 PM 38.1710 -89.4770 132° Southeast 496 571 27,200 1,808 Climbing FlightAware ADS-B
Sat 01:48:45 PM 38.1140 -89.3960 132° Southeast 502 578 28,200 1,606 Climbing FlightAware ADS-B
Sat 01:49:20 PM 38.0610 -89.3200 132° Southeast 504 580 29,100 1,565 Climbing FlightAware ADS-B
Sat 01:49:54 PM 38.0080 -89.2440 131° Southeast 506 582 30,000 1,690 Climbing FlightAware ADS-B
Sat 01:50:31 PM 37.9500 -89.1620 132° Southeast 504 580 31,100 1,750 Climbing FlightAware ADS-B
Sat 01:51:06 PM 37.8970 -89.0860 131° Southeast 499 574 32,100 1,676 Climbing FlightAware ADS-B
Sat 01:51:39 PM 37.8480 -89.0170 132° Southeast 495 570 33,000 1,629 Climbing FlightAware ADS-B
Sat 01:52:16 PM 37.7900 -88.9350 132° Southeast 490 564 34,000 1,397 Climbing FlightAware ADS-B
Sat 01:52:52 PM 37.7350 -88.8580 132° Southeast 490 564 34,700 882 Climbing FlightAware ADS-B
Sat 01:53:24 PM 37.6860 -88.7900 132° Southeast 491 565 35,000 269 Climbing FlightAware ADS-B
Sat 01:53:59 PM 37.6350 -88.7180 132° Southeast 492 566 35,000  Level FlightAware ADS-B
Sat 01:54:36 PM 37.5780 -88.6380 132° Southeast 494 568 35,000 90 Level FlightAware ADS-B
Sat 01:55:06 PM 37.5310 -88.5720 132° Southeast 497 572 35,100 857 Climbing FlightAware ADS-B
Sat 01:55:46 PM 37.4710 -88.4880 132° Southeast 488 562 36,000 720 Climbing FlightAware ADS-B
Sat 01:56:21 PM 37.4170 -88.4130 132° Southeast 489 563 36,000 88 Level FlightAware ADS-B
Sat 01:56:54 PM 37.3670 -88.3450 133° Southeast 492 566 36,100 522 Climbing FlightAware ADS-B
Sat 01:57:30 PM 37.3120 -88.2680 132° Southeast 491 565 36,600 750 Climbing FlightAware ADS-B
Sat 01:58:06 PM 37.2580 -88.1940 133° Southeast 494 568 37,000 353 Climbing FlightAware ADS-B
Sat 01:58:38 PM 37.2070 -88.1240 132° Southeast 495 570 37,000  Level FlightAware ADS-B
Sat 01:59:16 PM 37.1490 -88.0430 132° Southeast 496 571 37,000  Level FlightAware ADS-B
Sat 01:59:51 PM 37.0940 -87.9680 133° Southeast 496 571 37,000  Level FlightAware ADS-B
Sat 02:00:26 PM 37.0400 -87.8950 133° Southeast 496 571 37,000  Level FlightAware ADS-B
Sat 02:01:02 PM 36.9850 -87.8200 133° Southeast 496 571 37,000  Level FlightAware ADS-B
Sat 02:01:34 PM 36.9350 -87.7520 133° Southeast 496 571 37,000  Level FlightAware ADS-B
Sat 02:02:07 PM 36.8840 -87.6830 133° Southeast 495 570 37,000  Level FlightAware ADS-B
Sat 02:02:43 PM 36.8270 -87.6050 132° Southeast 494 568 37,000  Level FlightAware ADS-B
Sat 02:03:21 PM 36.7700 -87.5290 133° Southeast 491 565 37,000  Level FlightAware ADS-B
Sat 02:03:57 PM 36.7130 -87.4510 132° Southeast 487 560 37,000  Level FlightAware ADS-B
Sat 02:04:31 PM 36.6620 -87.3820 133° Southeast 486 559 37,000  Level FlightAware ADS-B
Sat 02:05:02 PM 36.6150 -87.3190 133° Southeast 486 559 37,000  Level FlightAware ADS-B
Sat 02:05:39 PM 36.5580 -87.2430 133° Southeast 484 557 37,000  Level FlightAware ADS-B
Sat 02:06:17 PM 36.5020 -87.1690 133° Southeast 484 557 37,000  Level FlightAware ADS-B
Sat 02:06:50 PM 36.4490 -87.0980 133° Southeast 484 557 37,000  Level FlightAware ADS-B
Sat 02:07:31 PM 36.3900 -87.0190 133° Southeast 482 555 37,000  Level FlightAware ADS-B
Sat 02:08:05 PM 36.3380 -86.9500 133° Southeast 481 554 37,000  Level FlightAware ADS-B
Sat 02:08:41 PM 36.2820 -86.8760 133° Southeast 481 554 37,000  Level FlightAware ADS-B
Sat 02:09:13 PM 36.2330 -86.8120 133° Southeast 483 556 37,000  Level FlightAware ADS-B
Sat 02:09:51 PM 36.1730 -86.7330 133° Southeast 483 556 37,000  Level FlightAware ADS-B
Sat 02:10:27 PM 36.1180 -86.6670 136° Southeast 465 535 37,000  Level FlightAware ADS-B
Sat 02:11:03 PM 36.0550 -86.6080 143° Southeast 460 529 37,000  Level FlightAware ADS-B
Sat 02:11:39 PM 35.9930 -86.5510 143° Southeast 461 531 37,000  Level FlightAware ADS-B
Sat 02:12:11 PM 35.9390 -86.5010 143° Southeast 460 529 37,000  Level FlightAware ADS-B
Sat 02:12:48 PM 35.8790 -86.4450 143° Southeast 460 529 37,000  Level FlightAware ADS-B
Sat 02:13:23 PM 35.8180 -86.3890 143° Southeast 460 529 37,000  Level FlightAware ADS-B
Sat 02:13:55 PM 35.7630 -86.3380 143° Southeast 460 529 37,000  Level FlightAware ADS-B
Sat 02:14:31 PM 35.7020 -86.2820 143° Southeast 460 529 37,000  Level FlightAware ADS-B
Sat 02:15:07 PM 35.6400 -86.2250 143° Southeast 460 529 37,000  Level FlightAware ADS-B
Sat 02:15:43 PM 35.5780 -86.1680 143° Southeast 459 528 37,000  Level FlightAware ADS-B
Sat 02:16:17 PM 35.5250 -86.1190 143° Southeast 460 529 37,000  Level FlightAware ADS-B
Sat 02:16:50 PM 35.4670 -86.0670 144° Southeast 461 531 37,000  Level FlightAware ADS-B
Sat 02:17:26 PM 35.4130 -86.0180 144° Southeast 462 532 37,000  Level FlightAware ADS-B
Sat 02:18:00 PM 35.3480 -85.9580 143° Southeast 464 534 37,000  Level FlightAware ADS-B
Sat 02:18:36 PM 35.2830 -85.8990 143° Southeast 464 534 37,000  Level FlightAware ADS-B
Sat 02:19:11 PM 35.2240 -85.8460 144° Southeast 466 536 37,000  Level FlightAware ADS-B
Sat 02:19:46 PM 35.1600 -85.7880 143° Southeast 467 537 37,000  Level FlightAware ADS-B
Sat 02:20:20 PM 35.1010 -85.7340 143° Southeast 464 534 37,000  Level FlightAware ADS-B
Sat 02:20:56 PM 35.0400 -85.6790 144° Southeast 459 528 37,000  Level FlightAware ADS-B
Sat 02:21:34 PM 34.9760 -85.6220 144° Southeast 454 522 37,000  Level FlightAware ADS-B
Sat 02:22:08 PM 34.9180 -85.5700 144° Southeast 454 522 37,000  Level FlightAware ADS-B
Sat 02:22:38 PM 34.8680 -85.5250 144° Southeast 454 522 37,000  Level FlightAware ADS-B
Sat 02:23:14 PM 34.8060 -85.4700 144° Southeast 456 525 37,000  Level FlightAware ADS-B
Sat 02:23:51 PM 34.7450 -85.4140 143° Southeast 456 525 37,000  Level FlightAware ADS-B
Sat 02:24:26 PM 34.6830 -85.3600 144° Southeast 457 526 37,000  Level FlightAware ADS-B
Sat 02:25:02 PM 34.6220 -85.3110 147° Southeast 440 506 37,000  Level FlightAware ADS-B
Sat 02:25:36 PM 34.5600 -85.2760 155° Southeast 433 498 37,000  Level FlightAware ADS-B
Sat 02:26:12 PM 34.4940 -85.2390 155° Southeast 434 499 37,000  Level FlightAware ADS-B
Sat 02:26:44 PM 34.4330 -85.2060 156° South 435 501 37,000  Level FlightAware ADS-B
Sat 02:27:22 PM 34.3680 -85.1700 155° Southeast 436 502 37,000  Level FlightAware ADS-B
Sat 02:28:03 PM 34.2910 -85.1280 156° South 438 504 37,000  Level FlightAware ADS-B
Sat 02:28:40 PM 34.2330 -85.0960 155° Southeast 439 505 37,000  Level FlightAware ADS-B
Sat 02:29:26 PM 34.1540 -85.0520 155° Southeast 440 506 37,000  Level FlightAware ADS-B
Sat 02:30:01 PM 34.0750 -85.0090 156° South 440 506 37,000  Level FlightAware ADS-B
Sat 02:30:44 PM 34.0000 -84.9680 156° South 440 506 37,000  Level FlightAware ADS-B
Sat 02:31:22 PM 33.9320 -84.9310 156° South 440 506 37,000  Level FlightAware ADS-B
Sat 02:31:54 PM 33.8630 -84.8940 156° South 440 506 37,000  Level FlightAware ADS-B
Sat 02:32:29 PM 33.7980 -84.8580 155° Southeast 440 506 37,000  Level FlightAware ADS-B
Sat 02:33:09 PM 33.7240 -84.8180 156° South 441 507 37,000  Level FlightAware ADS-B
Sat 02:33:44 PM 33.6570 -84.7820 156° South 442 509 37,000  Level FlightAware ADS-B
Sat 02:34:24 PM 33.5890 -84.7450 156° South 443 510 37,000  Level FlightAware ADS-B
Sat 02:34:55 PM 33.5280 -84.7120 156° South 444 511 37,000  Level FlightAware ADS-B
Sat 02:35:30 PM 33.4610 -84.6760 156° South 445 512 37,000  Level FlightAware ADS-B
Sat 02:36:05 PM 33.4000 -84.6440 156° South 439 505 37,000  Level FlightAware ADS-B
Sat 02:36:57 PM 33.2940 -84.5860 155° Southeast 448 516 37,000  Level FlightAware ADS-B
Sat 02:37:33 PM 33.2260 -84.5500 156° South 450 518 37,000  Level FlightAware ADS-B
Sat 02:38:02 PM 33.1710 -84.5210 156° South 451 519 37,000  Level FlightAware ADS-B
Sat 02:38:41 PM 33.0970 -84.4810 156° South 452 520 37,000  Level FlightAware ADS-B
Sat 02:39:18 PM 33.0250 -84.4430 156° South 453 521 37,000  Level FlightAware ADS-B
Sat 02:39:50 PM 32.9630 -84.4100 156° South 453 521 37,000  Level FlightAware ADS-B
Sat 02:40:25 PM 32.8970 -84.3750 156° South 452 520 37,000  Level FlightAware ADS-B
Sat 02:41:02 PM 32.8270 -84.3380 156° South 451 519 37,000  Level FlightAware ADS-B
Sat 02:41:51 PM 32.7320 -84.2870 156° South 449 517 37,000  Level FlightAware ADS-B
Sat 02:42:22 PM 32.6930 -84.2670 157° South 449 517 37,000  Level FlightAware ADS-B
Sat 02:43:11 PM 32.5910 -84.2120 156° South 448 516 37,000  Level FlightAware ADS-B
Sat 02:43:47 PM 32.5330 -84.1800 155° Southeast 448 516 37,000  Level FlightAware ADS-B
Sat 02:44:23 PM 32.4760 -84.1480 155° Southeast 448 516 37,000  Level FlightAware ADS-B
Sat 02:45:00 PM 32.4170 -84.1150 155° Southeast 448 516 37,000  Level FlightAware ADS-B
Sat 02:45:36 PM 32.3590 -84.0840 156° South 448 516 37,000  Level FlightAware ADS-B
Sat 02:46:12 PM 32.3020 -84.0520 155° Southeast 448 516 37,000  Level FlightAware ADS-B
Sat 02:46:50 PM 32.2410 -84.0180 155° Southeast 448 516 37,000  Level FlightAware ADS-B
Sat 02:47:26 PM 32.1830 -83.9870 156° South 448 516 37,000  Level FlightAware ADS-B
Sat 02:48:02 PM 32.1260 -83.9550 155° Southeast 448 516 37,000  Level FlightAware ADS-B
Sat 02:48:39 PM 32.0670 -83.9230 155° Southeast 448 516 37,000  Level FlightAware ADS-B
Sat 02:49:15 PM 32.0090 -83.8910 155° Southeast 448 516 37,000  Level FlightAware ADS-B
Sat 02:49:51 PM 31.9520 -83.8590 155° Southeast 448 516 37,000  Level FlightAware ADS-B
Sat 02:50:27 PM 31.8940 -83.8280 156° South 448 516 37,000  Level FlightAware ADS-B
Sat 02:51:03 PM 31.8370 -83.7960 155° Southeast 448 516 37,000  Level FlightAware ADS-B
Sat 02:51:39 PM 31.7790 -83.7650 156° South 448 516 37,000  Level FlightAware ADS-B
Sat 02:52:11 PM 31.5790 -83.5610 139° Southeast 466 536 37,000  Level FlightAware ADS-B
Sat 02:52:49 PM 31.5070 -83.5100 149° Southeast 466 536 37,000  Level FlightAware ADS-B
Sat 02:53:21 PM 31.4450 -83.4670 149° Southeast 466 536 37,000 -87 Level FlightAware ADS-B
Sat 02:53:58 PM 31.3760 -83.4190 149° Southeast 467 537 36,900 -575 Descending FlightAware ADS-B
Sat 02:54:34 PM 31.3080 -83.3710 149° Southeast 467 537 36,300 -975 Descending FlightAware ADS-B
Sat 02:55:18 PM 31.2270 -83.3140 149° Southeast 468 539 35,600 -900 Descending FlightAware ADS-B
Sat 02:55:54 PM 31.1620 -83.2690 149° Southeast 469 540 35,100 -1,378 Descending FlightAware ADS-B
Sat 02:56:32 PM 31.0900 -83.2190 149° Southeast 466 536 33,900 -2,351 Descending FlightAware ADS-B
Sat 02:57:08 PM 31.0220 -83.1720 149° Southeast 466 536 32,200 -2,620 Descending FlightAware ADS-B
Sat 02:57:43 PM 30.9560 -83.1260 149° Southeast 458 527 30,800 -2,294 Descending FlightAware ADS-B
Sat 02:58:16 PM 30.8980 -83.0860 149° Southeast 450 518 29,600 -2,118 Descending FlightAware ADS-B
Sat 02:58:51 PM 30.8370 -83.0440 149° Southeast 441 507 28,400 -2,083 Descending FlightAware ADS-B
Sat 02:59:28 PM 30.7750 -83.0010 149° Southeast 432 497 27,100 -1,254 Descending FlightAware ADS-B
Sat 02:59:58 PM 30.7280 -82.9680 149° Southeast 429 494 27,000 -90 Descending FlightAware ADS-B
Sat 03:00:35 PM 30.6580 -82.9200 149° Southeast 451 519 27,000 -329 Level FlightAware ADS-B
Sat 03:01:11 PM 30.5900 -82.8740 150° Southeast 437 503 26,600 -904 Descending FlightAware ADS-B
Sat 03:01:48 PM 30.5280 -82.8310 149° Southeast 416 479 25,900 -1,099 Descending FlightAware ADS-B
Sat 03:02:22 PM 30.4720 -82.7930 150° Southeast 409 471 25,300 -783 Descending FlightAware ADS-B
Sat 03:02:57 PM 30.4140 -82.7530 149° Southeast 414 476 25,000 -254 Descending FlightAware ADS-B
Sat 03:03:33 PM 30.3530 -82.7120 150° Southeast 434 499 25,000  Level FlightAware ADS-B
Sat 03:04:08 PM 30.2920 -82.6700 149° Southeast 437 503 25,000  Level FlightAware ADS-B
Sat 03:04:44 PM 30.2310 -82.6290 150° Southeast 439 505 25,000  Level FlightAware ADS-B
Sat 03:05:16 PM 30.1750 -82.5910 150° Southeast 438 504 25,000  Level FlightAware ADS-B
Sat 03:05:53 PM 30.1090 -82.5460 149° Southeast 438 504 25,000  Level FlightAware ADS-B
Sat 03:06:27 PM 30.0490 -82.5050 149° Southeast 439 505 25,000  Level FlightAware ADS-B
Sat 03:07:03 PM 29.9880 -82.4640 150° Southeast 438 504 25,000  Level FlightAware ADS-B
Sat 03:07:38 PM 29.9210 -82.4280 155° Southeast 435 501 25,000  Level FlightAware ADS-B
Sat 03:08:14 PM 29.8550 -82.3970 158° South 435 501 25,000 -1,268 Level FlightAware ADS-B
Sat 03:08:49 PM 29.7900 -82.3650 157° South 433 498 23,500 -2,735 Descending FlightAware ADS-B
Sat 03:09:22 PM 29.7280 -82.3350 157° South 430 495 21,900 -2,824 Descending FlightAware ADS-B
Sat 03:09:57 PM 29.6640 -82.3040 157° South 423 487 20,300 -1,886 Descending FlightAware ADS-B
Sat 03:10:32 PM 29.6030 -82.2750 158° South 407 468 19,700 -1,091 Descending FlightAware ADS-B
Sat 03:11:03 PM 29.5500 -82.2500 158° South 399 459 19,100 -1,083 Descending FlightAware ADS-B
Sat 03:11:44 PM 29.4800 -82.2160 157° South 392 451 18,400 -1,040 Descending FlightAware ADS-B
Sat 03:12:18 PM 29.4230 -82.1880 157° South 389 448 17,800 -957 Descending FlightAware ADS-B
Sat 03:12:53 PM 29.3650 -82.1610 158° South 385 443 17,300 -971 Descending FlightAware ADS-B
Sat 03:13:26 PM 29.3120 -82.1360 158° South 384 442 16,700 -1,043 Descending FlightAware ADS-B
Sat 03:14:02 PM 29.2510 -82.1070 157° South 385 443 16,100 -1,014 Descending FlightAware ADS-B
Sat 03:14:37 PM 29.1960 -82.0800 157° South 364 419 15,500 -1,083 Descending FlightAware ADS-B
Sat 03:15:14 PM 29.1400 -82.0530 157° South 351 404 14,800 -1,130 Descending FlightAware ADS-B
Sat 03:15:46 PM 29.0910 -82.0300 158° South 347 399 14,200 -1,304 Descending FlightAware ADS-B
Sat 03:16:23 PM 29.0370 -82.0040 157° South 340 391 13,300 -1,622 Descending FlightAware ADS-B
Sat 03:17:00 PM 28.9830 -81.9790 158° South 334 384 12,200 -1,739 Descending FlightAware ADS-B
Sat 03:17:32 PM 28.9380 -81.9570 157° South 325 374 11,300 -1,075 Descending FlightAware ADS-B
Sat 03:18:07 PM 28.8920 -81.9340 156° South 305 351 11,000 -353 Descending FlightAware ADS-B
Sat 03:18:23 PM 28.8760 -81.9170 137° Southeast 305 351 11,000 -429 Level FlightAware ADS-B
Sat 03:18:35 PM 28.8680 -81.8990 117° Southeast 308 354 10,800 -1,756 Descending FlightAware ADS-B
Sat 03:19:04 PM 28.8550 -81.8540 108° East 317 365 9,800 -1,698 Descending FlightAware ADS-B
Sat 03:19:28 PM 28.8450 -81.8160 107° East 311 358 9,300 -955 Descending FlightAware ADS-B
Sat 03:19:48 PM 28.8360 -81.7840 108° East 301 346 9,100 -474 Descending FlightAware ADS-B
Sat 03:20:06 PM 28.8290 -81.7570 106° East 296 341 9,000 -167 Descending FlightAware ADS-B
Sat 03:20:24 PM 28.8220 -81.7310 107° East 293 337 9,000  Level FlightAware ADS-B
Sat 03:20:44 PM 28.8140 -81.7020 107° East 292 336 9,000  Level FlightAware ADS-B
Sat 03:20:56 PM 28.8100 -81.6840 104° East 291 335 9,000  Level FlightAware ADS-B
Sat 03:21:16 PM 28.8020 -81.6550 107° East 292 336 9,000  Level FlightAware ADS-B
Sat 03:21:36 PM 28.7940 -81.6250 107° East 289 333 9,000 -400 Level FlightAware ADS-B
Sat 03:22:01 PM 28.7850 -81.5900 106° East 271 312 8,700 -955 Descending FlightAware ADS-B
Sat 03:22:20 PM 28.7780 -81.5630 106° East 267 307 8,300 -1,231 Descending FlightAware ADS-B
Sat 03:22:40 PM 28.7710 -81.5380 108° East 263 303 7,900 -1,364 Descending FlightAware ADS-B
Sat 03:23:04 PM 28.7620 -81.5050 107° East 264 304 7,300 -1,535 Descending FlightAware ADS-B
Sat 03:23:23 PM 28.7550 -81.4790 107° East 262 302 6,800 -1,273 Descending FlightAware ADS-B
Sat 03:23:37 PM 28.7500 -81.4620 109° East 258 297 6,600 -1,135 Descending FlightAware ADS-B
Sat 03:24:00 PM 28.7410 -81.4320 109° East 250 288 6,100 -1,286 Descending FlightAware ADS-B
Sat 03:24:05 PM 28.7380 -81.4270 124° Southeast 249 287 6,000 -1,091 Descending FlightAware ADS-B
Sat 03:24:11 PM 28.7350 -81.4220 124° Southeast 246 283 5,900 -1,200 Descending FlightAware ADS-B
Sat 03:24:20 PM 28.7260 -81.4150 146° Southeast 239 275 5,700 -1,200 Descending FlightAware ADS-B
Sat 03:24:41 PM 28.7050 -81.4020 151° Southeast 230 265 5,300 -833 Descending FlightAware ADS-B
Sat 03:24:56 PM 28.6920 -81.3930 149° Southeast 222 255 5,200 -414 Descending FlightAware ADS-B
Sat 03:25:10 PM 28.6800 -81.3850 150° Southeast 214 246 5,100 -545 Descending FlightAware ADS-B
Sat 03:25:29 PM 28.6640 -81.3760 154° Southeast 200 230 4,900 -750 Descending FlightAware ADS-B
Sat 03:25:50 PM 28.6460 -81.3660 154° Southeast 187 215 4,600 -1,024 Descending FlightAware ADS-B
Sat 03:26:10 PM 28.6320 -81.3580 153° Southeast 180 207 4,200 -1,227 Descending FlightAware ADS-B
Sat 03:26:34 PM 28.6140 -81.3480 154° Southeast 169 194 3,700 -1,143 Descending FlightAware ADS-B
Sat 03:26:52 PM 28.6010 -81.3430 161° South 165 190 3,400 -1,200 Descending FlightAware ADS-B
Sat 03:27:14 PM 28.5860 -81.3380 164° South 159 183 2,900 -1,171 Descending FlightAware ADS-B
Sat 03:27:33 PM 28.5720 -81.3340 166° South 158 182 2,600 -571 Descending FlightAware ADS-B
Sat 03:27:56 PM 28.5540 -81.3310 172° South 154 177 2,500 -1,067 Descending FlightAware ADS-B
Sat 03:28:18 PM 28.5390 -81.3290 173° South 160 184 1,800 -1,463 Descending FlightAware ADS-B
Sat 03:28:37 PM 28.5260 -81.3280 176° South 158 182 1,500 -732 Descending FlightAware ADS-B
Sat 03:28:59 PM 28.5110 -81.3270 177° South 148 170 1,300 -240 Descending FlightAware ADS-B
Sat 03:29:27 PM 28.4950 -81.3270 180° South 148 170 1,300 -696 Level FlightAware ADS-B
Sat 03:30:08 PM 28.4667 -81.3333 180° South 147 169 500 -1,171 Descending Orlando TRACON
Sat 03:32:00 PM 28.4294 -81.3090 180° South  Level Estimated
Sat 03:39:00 PM 28.4294 -81.3090 24° Northeast  Level Estimated
Sat 03:40:00 PM 28.4294 -81.3090 24° Northeast  Level Estimated
Sat 03:41:00 PM 28.4294 -81.3090 24° Northeast  Level Estimated

Login

Don't have an account? Register now (free) for customized features, flight alerts, and more!